Cortland, Illinois
Current Conditions -  °F | °C
As of 8:15 PM on Saturday 22 Nov 2014 (Local Time) from KDKB Reporting Station
NA  
Wind Chill: 40°   Ceiling: NA
Heat Index: 46°   Visibility: NA
Dew Point: 43°   Wind: 13mph
Humidity: 91%   Direction: 190°S
Pressure: 29.84"   Gusts: NA
Location:  41.92°N, 88.69°W
Report Text: KDKB 230215Z AUTO 19011KT 08/06 A2984 RMK AO2 T00770063 PWINO
Loading
Personal Weather Stations






























Interactive Weather Map New forecast layout! Learn more

10-Day Weather Forecast

Advertisements
Track Severe Weather on mobile